sensor_id;sensor_type;location;lat;lon;timestamp;P1;durP1;ratioP1;P2;durP2;ratioP2
45734;SDS011;31446;49.632;8.328;2022-11-20T00:01:28;66.47;;;28.17;;
45734;SDS011;31446;49.632;8.328;2022-11-20T00:16:35;65.43;;;28.70;;
45734;SDS011;31446;49.632;8.328;2022-11-20T00:31:41;67.70;;;30.05;;
45734;SDS011;31446;49.632;8.328;2022-11-20T00:46:48;56.50;;;27.08;;
45734;SDS011;31446;49.632;8.328;2022-11-20T01:01:54;61.63;;;28.63;;
45734;SDS011;31446;49.632;8.328;2022-11-20T01:17:01;58.92;;;25.45;;
45734;SDS011;31446;49.632;8.328;2022-11-20T01:32:07;51.42;;;24.92;;
45734;SDS011;31446;49.632;8.328;2022-11-20T01:47:14;58.35;;;25.95;;
45734;SDS011;31446;49.632;8.328;2022-11-20T02:02:22;66.32;;;26.40;;
45734;SDS011;31446;49.632;8.328;2022-11-20T02:17:29;57.13;;;25.65;;
45734;SDS011;31446;49.632;8.328;2022-11-20T02:32:36;48.92;;;22.65;;
45734;SDS011;31446;49.632;8.328;2022-11-20T02:47:43;42.08;;;19.58;;
45734;SDS011;31446;49.632;8.328;2022-11-20T03:02:49;51.35;;;23.02;;
45734;SDS011;31446;49.632;8.328;2022-11-20T03:17:56;57.08;;;23.00;;
45734;SDS011;31446;49.632;8.328;2022-11-20T03:33:02;62.72;;;25.20;;
45734;SDS011;31446;49.632;8.328;2022-11-20T03:48:09;61.40;;;26.08;;
45734;SDS011;31446;49.632;8.328;2022-11-20T04:03:15;64.40;;;24.30;;
45734;SDS011;31446;49.632;8.328;2022-11-20T04:18:22;47.70;;;22.85;;
45734;SDS011;31446;49.632;8.328;2022-11-20T04:33:28;51.10;;;23.88;;
45734;SDS011;31446;49.632;8.328;2022-11-20T04:48:35;49.45;;;23.20;;
45734;SDS011;31446;49.632;8.328;2022-11-20T05:03:41;46.42;;;23.15;;
45734;SDS011;31446;49.632;8.328;2022-11-20T05:18:49;42.22;;;21.17;;
45734;SDS011;31446;49.632;8.328;2022-11-20T05:33:56;42.45;;;21.10;;
45734;SDS011;31446;49.632;8.328;2022-11-20T05:49:02;38.95;;;20.75;;
45734;SDS011;31446;49.632;8.328;2022-11-20T06:04:09;45.20;;;21.85;;
45734;SDS011;31446;49.632;8.328;2022-11-20T06:19:16;46.03;;;22.33;;
45734;SDS011;31446;49.632;8.328;2022-11-20T06:34:22;52.33;;;22.13;;
45734;SDS011;31446;49.632;8.328;2022-11-20T06:49:29;53.20;;;23.02;;
45734;SDS011;31446;49.632;8.328;2022-11-20T07:04:37;52.05;;;23.65;;
45734;SDS011;31446;49.632;8.328;2022-11-20T07:19:43;56.85;;;24.70;;
45734;SDS011;31446;49.632;8.328;2022-11-20T07:34:49;53.40;;;25.63;;
45734;SDS011;31446;49.632;8.328;2022-11-20T07:49:56;47.45;;;24.80;;
45734;SDS011;31446;49.632;8.328;2022-11-20T08:05:15;52.90;;;25.17;;
45734;SDS011;31446;49.632;8.328;2022-11-20T08:20:21;52.70;;;24.20;;
45734;SDS011;31446;49.632;8.328;2022-11-20T08:35:28;45.55;;;21.73;;
45734;SDS011;31446;49.632;8.328;2022-11-20T08:50:37;43.40;;;23.25;;
45734;SDS011;31446;49.632;8.328;2022-11-20T09:05:43;46.83;;;23.40;;
45734;SDS011;31446;49.632;8.328;2022-11-20T09:20:49;43.83;;;21.67;;
45734;SDS011;31446;49.632;8.328;2022-11-20T09:35:56;40.15;;;20.98;;
45734;SDS011;31446;49.632;8.328;2022-11-20T09:51:04;49.58;;;23.17;;
45734;SDS011;31446;49.632;8.328;2022-11-20T10:06:16;49.53;;;23.73;;
45734;SDS011;31446;49.632;8.328;2022-11-20T10:21:29;46.22;;;22.45;;
45734;SDS011;31446;49.632;8.328;2022-11-20T10:36:42;53.23;;;26.40;;
45734;SDS011;31446;49.632;8.328;2022-11-20T10:51:56;47.42;;;26.92;;
45734;SDS011;31446;49.632;8.328;2022-11-20T11:07:10;47.25;;;27.88;;
45734;SDS011;31446;49.632;8.328;2022-11-20T11:22:20;78.32;;;46.10;;
45734;SDS011;31446;49.632;8.328;2022-11-20T11:37:27;52.55;;;27.17;;
45734;SDS011;31446;49.632;8.328;2022-11-20T11:52:41;51.58;;;25.60;;
45734;SDS011;31446;49.632;8.328;2022-11-20T12:07:51;44.80;;;25.73;;
45734;SDS011;31446;49.632;8.328;2022-11-20T12:23:04;48.58;;;25.33;;
45734;SDS011;31446;49.632;8.328;2022-11-20T12:38:26;42.30;;;22.37;;
45734;SDS011;31446;49.632;8.328;2022-11-20T12:53:48;49.80;;;27.67;;
45734;SDS011;31446;49.632;8.328;2022-11-20T13:09:01;34.42;;;18.42;;
45734;SDS011;31446;49.632;8.328;2022-11-20T13:24:22;59.60;;;32.92;;
45734;SDS011;31446;49.632;8.328;2022-11-20T13:39:33;29.80;;;15.77;;
45734;SDS011;31446;49.632;8.328;2022-11-20T13:54:46;26.85;;;13.73;;
45734;SDS011;31446;49.632;8.328;2022-11-20T14:10:06;30.27;;;15.27;;
45734;SDS011;31446;49.632;8.328;2022-11-20T14:25:28;19.80;;;8.43;;
45734;SDS011;31446;49.632;8.328;2022-11-20T14:40:35;12.50;;;2.92;;
45734;SDS011;31446;49.632;8.328;2022-11-20T14:55:42;5.50;;;1.80;;
45734;SDS011;31446;49.632;8.328;2022-11-20T15:10:49;8.93;;;2.83;;
45734;SDS011;31446;49.632;8.328;2022-11-20T15:25:56;11.93;;;2.63;;
45734;SDS011;31446;49.632;8.328;2022-11-20T15:41:03;32.20;;;13.18;;
45734;SDS011;31446;49.632;8.328;2022-11-20T15:56:11;29.17;;;13.82;;
45734;SDS011;31446;49.632;8.328;2022-11-20T16:11:18;22.20;;;10.82;;
45734;SDS011;31446;49.632;8.328;2022-11-20T16:26:24;14.13;;;4.15;;
45734;SDS011;31446;49.632;8.328;2022-11-20T16:41:31;22.05;;;15.00;;
45734;SDS011;31446;49.632;8.328;2022-11-20T16:56:39;14.73;;;7.47;;
45734;SDS011;31446;49.632;8.328;2022-11-20T17:11:45;15.60;;;5.97;;
45734;SDS011;31446;49.632;8.328;2022-11-20T17:26:53;12.60;;;7.20;;
45734;SDS011;31446;49.632;8.328;2022-11-20T17:41:59;16.45;;;7.28;;
45734;SDS011;31446;49.632;8.328;2022-11-20T17:57:17;7.75;;;3.65;;
45734;SDS011;31446;49.632;8.328;2022-11-20T18:12:36;15.93;;;7.18;;
45734;SDS011;31446;49.632;8.328;2022-11-20T18:27:42;16.83;;;6.13;;
45734;SDS011;31446;49.632;8.328;2022-11-20T18:42:49;4.97;;;2.17;;
45734;SDS011;31446;49.632;8.328;2022-11-20T18:58:07;4.22;;;1.33;;
45734;SDS011;31446;49.632;8.328;2022-11-20T19:13:13;5.75;;;1.40;;
45734;SDS011;31446;49.632;8.328;2022-11-20T19:28:20;3.38;;;1.00;;
45734;SDS011;31446;49.632;8.328;2022-11-20T19:43:26;2.78;;;1.23;;
45734;SDS011;31446;49.632;8.328;2022-11-20T19:58:33;1.73;;;0.50;;
45734;SDS011;31446;49.632;8.328;2022-11-20T20:13:39;3.90;;;2.00;;
45734;SDS011;31446;49.632;8.328;2022-11-20T20:28:46;1.83;;;0.50;;
45734;SDS011;31446;49.632;8.328;2022-11-20T20:43:52;2.22;;;1.80;;
45734;SDS011;31446;49.632;8.328;2022-11-20T20:59:11;6.78;;;4.00;;
45734;SDS011;31446;49.632;8.328;2022-11-20T21:14:17;7.60;;;3.47;;
45734;SDS011;31446;49.632;8.328;2022-11-20T21:29:24;4.97;;;1.30;;
45734;SDS011;31446;49.632;8.328;2022-11-20T21:44:31;3.03;;;0.80;;
45734;SDS011;31446;49.632;8.328;2022-11-20T21:59:37;11.00;;;1.20;;
45734;SDS011;31446;49.632;8.328;2022-11-20T22:14:44;4.60;;;1.45;;
45734;SDS011;31446;49.632;8.328;2022-11-20T22:29:50;6.63;;;1.60;;
45734;SDS011;31446;49.632;8.328;2022-11-20T22:44:57;6.07;;;1.60;;
45734;SDS011;31446;49.632;8.328;2022-11-20T23:00:03;7.53;;;1.58;;
45734;SDS011;31446;49.632;8.328;2022-11-20T23:15:11;14.02;;;1.83;;
45734;SDS011;31446;49.632;8.328;2022-11-20T23:30:18;7.50;;;1.92;;
45734;SDS011;31446;49.632;8.328;2022-11-20T23:45:24;10.85;;;1.73;;
